Time;durP1;ratioP1;P1;durP2;ratioP2;P2;SDS_P1;SDS_P2;PMS_P1;PMS_P2;Temp;Humidity;BMP_temperature;BMP_pressure;BME280_temperature;BME280_humidity;BME280_pressure;Samples;Min_cycle;Max_cycle;Signal;HPM_P1;HPM_P2
2022/01/01 00:01:53;;;;;;;;;;;10.70;99.90;;;;;;4984260;28;20381;-67
2022/01/01 00:04:19;;;;;;;;;;;10.70;99.90;;;;;;4985971;28;19921;-67
2022/01/01 00:06:44;;;;;;;;;;;10.70;99.90;;;;;;4990640;28;19918;-68
2022/01/01 00:09:10;;;;;;;;;;;10.80;99.90;;;;;;4986571;28;20367;-68
2022/01/01 00:11:35;;;;;;;;;;;10.80;99.90;;;;;;4988249;28;20009;-67
2022/01/01 00:14:01;;;;;;;;;;;10.80;99.90;;;;;;4966119;28;20004;-68
2022/01/01 00:16:26;;;;;;;;;;;10.90;99.90;;;;;;4980991;28;19992;-68
2022/01/01 00:18:52;;;;;;;;;;;11.00;99.90;;;;;;4982271;28;19914;-67
2022/01/01 00:21:17;;;;;;;;;;;11.00;99.90;;;;;;4991826;28;19909;-68
2022/01/01 00:23:43;;;;;;;;;;;11.00;99.90;;;;;;4991474;28;19914;-68
2022/01/01 00:26:08;;;;;;;;;;;11.10;99.90;;;;;;4988500;28;19932;-68
2022/01/01 00:28:34;;;;;;;;;;;11.10;99.90;;;;;;4984221;28;19914;-67
2022/01/01 00:30:59;;;;;;;;;;;11.10;99.90;;;;;;5003375;28;19909;-67
2022/01/01 00:33:25;;;;;;;;;;;11.10;99.90;;;;;;4991208;28;19945;-67
2022/01/01 00:35:51;;;;;;;;;;;11.00;99.90;;;;;;4974092;28;19913;-67
2022/01/01 00:38:16;;;;;;;;;;;11.00;99.90;;;;;;4985377;28;19910;-68
2022/01/01 00:40:42;;;;;;;;;;;11.00;99.90;;;;;;4978319;28;20292;-68
2022/01/01 00:43:07;;;;;;;;;;;11.00;99.90;;;;;;4974054;28;20383;-67
2022/01/01 00:45:33;;;;;;;;;;;11.00;99.90;;;;;;4983690;28;19949;-67
2022/01/01 00:47:58;;;;;;;;;;;11.00;99.90;;;;;;4991610;28;19932;-67
2022/01/01 00:50:24;;;;;;;;;;;11.00;99.90;;;;;;4987968;28;19941;-67
2022/01/01 00:52:52;;;;;;;;;;;11.00;99.90;;;;;;4986831;28;19910;-67
2022/01/01 00:55:19;;;;;;;;;;;11.10;99.90;;;;;;4982736;28;19909;-67
2022/01/01 00:57:46;;;;;;;;;;;11.10;99.90;;;;;;4968899;28;19916;-67
2022/01/01 01:00:11;;;;;;;;;;;11.00;99.90;;;;;;4990496;28;19921;-67
2022/01/01 01:02:37;;;;;;;;;;;11.10;99.90;;;;;;4990139;28;19910;-67
2022/01/01 01:05:02;;;;;;;;;;;11.20;99.90;;;;;;4974672;28;20020;-68
2022/01/01 01:07:28;;;;;;;;;;;11.20;99.90;;;;;;4965041;28;20312;-67
2022/01/01 01:09:53;;;;;;;;;;;11.30;99.90;;;;;;4971421;28;20529;-67
2022/01/01 01:12:24;;;;;;;;;;;11.30;99.90;;;;;;4991698;28;20288;-67
2022/01/01 01:14:51;;;;;;;;;;;11.30;99.90;;;;;;4991886;28;19910;-67
2022/01/01 01:17:17;;;;;;;;;;;11.30;99.90;;;;;;4985035;28;19910;-67
2022/01/01 01:19:42;;;;;;;;;;;11.30;99.90;;;;;;4987746;28;19909;-67
2022/01/01 01:22:08;;;;;;;;;;;11.40;99.90;;;;;;4991691;28;19910;-67
2022/01/01 01:24:34;;;;;;;;;;;11.40;99.90;;;;;;4989974;28;19914;-67
2022/01/01 01:27:01;;;;;;;;;;;11.40;99.90;;;;;;4981881;28;19941;-67
2022/01/01 01:29:26;;;;;;;;;;;11.40;99.90;;;;;;4997427;28;19945;-67
2022/01/01 01:31:52;;;;;;;;;;;11.40;99.90;;;;;;4983365;28;19995;-67
2022/01/01 01:34:17;;;;;;;;;;;11.40;99.90;;;;;;4984882;28;19910;-67
2022/01/01 01:36:43;;;;;;;;;;;11.40;99.90;;;;;;4991346;28;19937;-67
2022/01/01 01:39:09;;;;;;;;;;;11.40;99.90;;;;;;4993804;28;19916;-67
2022/01/01 01:41:34;;;;;;;;;;;11.40;99.90;;;;;;4991799;28;20009;-68
2022/01/01 01:44:02;;;;;;;;;;;11.40;99.90;;;;;;4991012;28;19996;-67
2022/01/01 01:46:27;;;;;;;;;;;11.30;99.90;;;;;;4995022;28;19945;-67
2022/01/01 01:48:53;;;;;;;;;;;11.30;99.90;;;;;;4990997;28;19952;-67
2022/01/01 01:51:19;;;;;;;;;;;11.20;99.90;;;;;;4991736;28;20319;-67
2022/01/01 01:53:45;;;;;;;;;;;11.20;99.90;;;;;;4994740;28;19916;-67
2022/01/01 01:56:10;;;;;;;;;;;11.20;99.90;;;;;;4993758;28;19910;-67
2022/01/01 01:58:36;;;;;;;;;;;11.10;99.90;;;;;;4994402;28;19910;-67
2022/01/01 02:03:36;;;;;;;;;;;11.10;99.90;;;;;;4992890;28;19913;-66
2022/01/01 02:06:04;;;;;;;;;;;11.00;99.90;;;;;;4987104;28;20786;-67
2022/01/01 02:08:29;;;;;;;;;;;11.10;99.90;;;;;;4987866;28;19910;-67
2022/01/01 02:10:55;;;;;;;;;;;11.10;99.90;;;;;;4974855;28;19910;-67
2022/01/01 02:13:30;;;;;;;;;;;11.20;99.90;;;;;;4994288;28;19920;-67
2022/01/01 02:18:22;;;;;;;;;;;11.10;99.90;;;;;;4995012;28;20390;-67
2022/01/01 02:20:51;;;;;;;;;;;11.20;99.90;;;;;;4982274;28;19910;-67
2022/01/01 02:23:26;;;;;;;;;;;11.20;99.90;;;;;;4990055;28;20007;-67
2022/01/01 02:25:54;;;;;;;;;;;11.20;99.90;;;;;;4974993;28;20403;-67
2022/01/01 02:28:19;;;;;;;;;;;11.20;99.90;;;;;;4986871;28;19993;-67
2022/01/01 02:30:45;;;;;;;;;;;11.20;99.90;;;;;;4992083;28;20475;-67
2022/01/01 02:33:11;;;;;;;;;;;11.20;99.90;;;;;;4994979;28;19920;-67
2022/01/01 02:35:36;;;;;;;;;;;11.30;99.90;;;;;;4993741;28;19916;-67
2022/01/01 02:38:02;;;;;;;;;;;11.40;99.90;;;;;;4991423;28;19910;-67
2022/01/01 02:40:27;;;;;;;;;;;11.30;99.90;;;;;;4991615;28;19960;-67
2022/01/01 02:42:54;;;;;;;;;;;11.40;99.90;;;;;;4979732;28;19909;-67
2022/01/01 02:45:20;;;;;;;;;;;11.30;99.90;;;;;;5007452;28;19921;-67
2022/01/01 02:47:46;;;;;;;;;;;11.30;99.90;;;;;;4988510;28;19910;-67
2022/01/01 02:50:11;;;;;;;;;;;11.30;99.90;;;;;;4992099;28;19963;-67
2022/01/01 02:52:37;;;;;;;;;;;11.30;99.90;;;;;;4993713;28;19916;-67
2022/01/01 02:55:04;;;;;;;;;;;11.30;99.90;;;;;;4992823;28;19983;-67
2022/01/01 02:57:29;;;;;;;;;;;11.30;99.90;;;;;;4992296;28;19964;-67
2022/01/01 02:59:55;;;;;;;;;;;11.30;99.90;;;;;;4988525;28;19910;-67
2022/01/01 03:02:20;;;;;;;;;;;11.20;99.90;;;;;;4993374;28;19913;-67
2022/01/01 03:04:46;;;;;;;;;;;11.20;99.90;;;;;;4999419;28;19920;-67
2022/01/01 03:07:12;;;;;;;;;;;11.20;99.90;;;;;;4969653;28;19918;-67
2022/01/01 03:09:37;;;;;;;;;;;11.20;99.90;;;;;;4986875;28;19933;-67
2022/01/01 03:12:09;;;;;;;;;;;11.20;99.90;;;;;;4993315;28;20006;-67
2022/01/01 03:14:35;;;;;;;;;;;11.20;99.90;;;;;;4993555;28;19910;-67
2022/01/01 03:17:01;;;;;;;;;;;11.10;99.90;;;;;;4975712;28;19921;-67
2022/01/01 03:19:27;;;;;;;;;;;11.10;99.90;;;;;;4989863;28;19909;-67
2022/01/01 03:21:52;;;;;;;;;;;11.10;99.90;;;;;;4991994;28;19917;-67
2022/01/01 03:24:18;;;;;;;;;;;11.10;99.90;;;;;;4994682;28;19920;-67
2022/01/01 03:26:43;;;;;;;;;;;10.90;99.90;;;;;;4992280;28;19957;-67
2022/01/01 03:29:10;;;;;;;;;;;10.90;99.90;;;;;;4992063;28;19909;-67
2022/01/01 03:31:35;;;;;;;;;;;10.90;99.90;;;;;;4992084;28;19949;-67
2022/01/01 03:34:01;;;;;;;;;;;10.90;99.90;;;;;;4975762;28;19948;-67
2022/01/01 03:36:26;;;;;;;;;;;10.90;99.90;;;;;;4992886;28;19910;-67
2022/01/01 03:38:52;;;;;;;;;;;10.90;99.90;;;;;;4982963;28;19967;-67
2022/01/01 03:41:17;;;;;;;;;;;10.90;99.90;;;;;;4970815;28;20373;-67
2022/01/01 03:43:43;;;;;;;;;;;10.90;99.90;;;;;;4991549;28;19916;-67
2022/01/01 03:46:09;;;;;;;;;;;10.80;99.90;;;;;;4992736;28;19909;-67
2022/01/01 03:48:34;;;;;;;;;;;10.90;99.90;;;;;;4992108;28;19917;-67
2022/01/01 03:51:00;;;;;;;;;;;10.90;99.90;;;;;;4991581;28;19910;-67
2022/01/01 03:53:25;;;;;;;;;;;10.80;99.90;;;;;;4987183;28;19910;-67
2022/01/01 03:55:52;;;;;;;;;;;10.90;99.90;;;;;;4991561;28;19910;-67
2022/01/01 03:58:17;;;;;;;;;;;10.90;99.90;;;;;;4992888;28;19979;-67
2022/01/01 04:00:43;;;;;;;;;;;10.90;99.90;;;;;;4984382;28;20372;-67
2022/01/01 04:03:09;;;;;;;;;;;10.90;99.90;;;;;;4984986;28;19964;-67
2022/01/01 04:05:35;;;;;;;;;;;11.00;99.90;;;;;;4992211;28;19918;-67
2022/01/01 04:08:02;;;;;;;;;;;11.00;99.90;;;;;;4992612;28;19937;-67
2022/01/01 04:10:29;;;;;;;;;;;11.00;99.90;;;;;;4987538;28;20434;-67
2022/01/01 04:12:54;;;;;;;;;;;11.00;99.90;;;;;;4988375;28;19914;-67
2022/01/01 04:15:20;;;;;;;;;;;11.10;99.90;;;;;;4993345;28;20033;-67
2022/01/01 04:17:45;;;;;;;;;;;11.10;99.90;;;;;;4991334;28;20395;-67
2022/01/01 04:20:11;;;;;;;;;;;11.10;99.90;;;;;;4991227;28;19913;-67
2022/01/01 04:22:36;;;;;;;;;;;11.10;99.90;;;;;;4983913;28;19910;-67
2022/01/01 04:25:02;;;;;;;;;;;11.10;99.90;;;;;;4995872;28;20362;-67
2022/01/01 04:27:27;;;;;;;;;;;11.10;99.90;;;;;;4995749;28;19916;-67
2022/01/01 04:29:53;;;;;;;;;;;11.10;99.90;;;;;;4987488;28;20591;-67
2022/01/01 04:32:19;;;;;;;;;;;11.10;99.90;;;;;;4971394;28;20396;-67
2022/01/01 04:34:45;;;;;;;;;;;11.10;99.90;;;;;;4989131;28;19916;-67
2022/01/01 04:37:12;;;;;;;;;;;11.10;99.90;;;;;;4997563;28;19913;-67
2022/01/01 04:39:39;;;;;;;;;;;11.10;99.90;;;;;;4992144;28;19953;-67
2022/01/01 04:42:05;;;;;;;;;;;11.10;99.90;;;;;;4988719;28;19972;-67
2022/01/01 04:44:30;;;;;;;;;;;11.10;99.90;;;;;;4990548;28;19913;-68
2022/01/01 04:46:56;;;;;;;;;;;11.10;99.90;;;;;;4991922;28;19917;-67
2022/01/01 04:49:22;;;;;;;;;;;11.10;99.90;;;;;;4991260;28;19914;-67
2022/01/01 04:51:48;;;;;;;;;;;11.10;99.90;;;;;;4973698;28;19958;-67
2022/01/01 04:54:15;;;;;;;;;;;11.10;99.90;;;;;;4974084;28;20082;-67
2022/01/01 04:56:44;;;;;;;;;;;11.10;99.90;;;;;;4990603;28;19914;-67
2022/01/01 04:59:10;;;;;;;;;;;11.10;99.90;;;;;;4990475;28;19975;-67
2022/01/01 05:01:36;;;;;;;;;;;11.00;99.90;;;;;;4983384;28;19941;-67
2022/01/01 05:04:01;;;;;;;;;;;11.00;99.90;;;;;;4991583;28;19960;-67
2022/01/01 05:06:27;;;;;;;;;;;10.90;99.90;;;;;;4991135;28;19957;-67
2022/01/01 05:08:52;;;;;;;;;;;10.80;99.90;;;;;;4990443;28;19910;-67
2022/01/01 05:11:18;;;;;;;;;;;10.80;99.90;;;;;;4990610;28;20330;-67
2022/01/01 05:13:43;;;;;;;;;;;10.80;99.90;;;;;;4990667;28;19925;-67
2022/01/01 05:16:14;;;;;;;;;;;10.70;99.90;;;;;;4992229;28;19964;-67
2022/01/01 05:18:40;;;;;;;;;;;10.70;99.90;;;;;;4983576;28;19917;-67
2022/01/01 05:21:05;;;;;;;;;;;10.70;99.90;;;;;;4979520;28;19910;-67
2022/01/01 05:23:30;;;;;;;;;;;10.70;99.90;;;;;;4987747;28;19913;-67
2022/01/01 05:25:56;;;;;;;;;;;10.70;99.90;;;;;;4969169;28;19933;-67
2022/01/01 05:28:21;;;;;;;;;;;10.60;99.90;;;;;;4990066;28;19909;-67
2022/01/01 05:30:47;;;;;;;;;;;10.70;99.90;;;;;;4988994;28;19916;-67
2022/01/01 05:33:12;;;;;;;;;;;10.70;99.90;;;;;;4988741;28;19909;-67
2022/01/01 05:35:38;;;;;;;;;;;10.70;99.90;;;;;;5001057;28;19916;-67
2022/01/01 05:38:03;;;;;;;;;;;10.70;99.90;;;;;;4992650;28;19910;-67
2022/01/01 05:40:30;;;;;;;;;;;10.70;99.90;;;;;;4986031;28;19916;-67
2022/01/01 05:42:56;;;;;;;;;;;10.70;99.90;;;;;;4990541;28;20343;-67
2022/01/01 05:45:21;;;;;;;;;;;10.70;99.90;;;;;;4991637;28;19917;-67
2022/01/01 05:47:47;;;;;;;;;;;10.70;99.90;;;;;;4987168;28;19910;-67
2022/01/01 05:50:12;;;;;;;;;;;10.70;99.90;;;;;;4984503;28;19965;-66
2022/01/01 05:52:38;;;;;;;;;;;10.70;99.90;;;;;;4989558;28;19972;-67
2022/01/01 05:55:03;;;;;;;;;;;10.60;99.90;;;;;;4990606;28;19921;-67
2022/01/01 05:57:29;;;;;;;;;;;10.60;99.90;;;;;;4990602;28;19941;-67
2022/01/01 05:59:54;;;;;;;;;;;10.70;99.90;;;;;;4982502;28;20490;-67
2022/01/01 06:02:20;;;;;;;;;;;10.70;99.90;;;;;;4989308;28;19918;-67
2022/01/01 06:04:45;;;;;;;;;;;10.60;99.90;;;;;;4989596;28;19914;-67
2022/01/01 06:07:11;;;;;;;;;;;10.60;99.90;;;;;;4990572;28;20020;-67
2022/01/01 06:09:36;;;;;;;;;;;10.60;99.90;;;;;;4981492;28;19953;-67
2022/01/01 06:12:02;;;;;;;;;;;10.50;99.90;;;;;;4990310;28;19909;-67
2022/01/01 06:14:27;;;;;;;;;;;10.60;99.90;;;;;;4983204;28;19976;-67
2022/01/01 06:16:53;;;;;;;;;;;10.50;99.90;;;;;;4989728;28;19917;-67
2022/01/01 06:19:18;;;;;;;;;;;10.50;99.90;;;;;;4985662;28;19914;-67
2022/01/01 06:21:44;;;;;;;;;;;10.40;99.90;;;;;;4997942;28;19910;-67
2022/01/01 06:24:09;;;;;;;;;;;10.40;99.90;;;;;;4992903;28;19940;-67
2022/01/01 06:26:35;;;;;;;;;;;10.30;99.90;;;;;;4993753;28;19910;-67
2022/01/01 06:29:00;;;;;;;;;;;10.30;99.90;;;;;;4992676;28;20398;-67
2022/01/01 06:31:26;;;;;;;;;;;10.20;99.90;;;;;;4994775;28;19996;-67
2022/01/01 06:33:51;;;;;;;;;;;10.20;99.90;;;;;;4988750;28;19910;-67
2022/01/01 06:36:17;;;;;;;;;;;10.10;99.90;;;;;;4983294;28;19910;-67
2022/01/01 06:38:46;;;;;;;;;;;10.10;99.90;;;;;;4975971;28;19910;-67
2022/01/01 06:41:12;;;;;;;;;;;10.10;99.90;;;;;;4975061;28;19917;-67
2022/01/01 06:43:38;;;;;;;;;;;10.10;99.90;;;;;;4983280;28;20269;-67
2022/01/01 06:46:04;;;;;;;;;;;10.00;99.90;;;;;;4983632;28;20001;-67
2022/01/01 06:48:29;;;;;;;;;;;10.00;99.90;;;;;;4993821;28;19956;-67
2022/01/01 06:50:55;;;;;;;;;;;10.00;99.90;;;;;;4992327;28;19914;-67
2022/01/01 06:53:21;;;;;;;;;;;10.00;99.90;;;;;;4994989;28;19960;-67
2022/01/01 06:55:46;;;;;;;;;;;10.00;99.90;;;;;;4992897;28;19909;-67
2022/01/01 06:58:11;;;;;;;;;;;9.90;99.90;;;;;;4973656;28;19910;-67
2022/01/01 07:00:37;;;;;;;;;;;10.00;99.90;;;;;;4992264;28;19909;-67
2022/01/01 07:03:03;;;;;;;;;;;10.00;99.90;;;;;;4994369;28;20403;-67
2022/01/01 07:05:29;;;;;;;;;;;10.00;99.90;;;;;;4991665;28;19918;-67
2022/01/01 07:07:54;;;;;;;;;;;9.90;99.90;;;;;;4993567;28;19964;-67
2022/01/01 07:10:20;;;;;;;;;;;10.00;99.90;;;;;;4991534;28;20434;-67
2022/01/01 07:12:45;;;;;;;;;;;10.00;99.90;;;;;;4998002;28;20288;-67
2022/01/01 07:15:11;;;;;;;;;;;10.00;99.90;;;;;;4971294;28;20391;-68
2022/01/01 07:17:37;;;;;;;;;;;10.00;99.90;;;;;;4968690;28;19966;-68
2022/01/01 07:20:03;;;;;;;;;;;10.00;99.90;;;;;;4992089;28;19965;-67
2022/01/01 07:22:29;;;;;;;;;;;10.10;99.90;;;;;;4992118;28;20011;-67
2022/01/01 07:24:54;;;;;;;;;;;10.10;99.90;;;;;;4992489;28;20030;-68
2022/01/01 07:27:20;;;;;;;;;;;10.10;99.90;;;;;;4993490;28;19910;-68
2022/01/01 07:29:46;;;;;;;;;;;10.10;99.90;;;;;;4990891;28;19941;-68
2022/01/01 07:32:12;;;;;;;;;;;10.10;99.90;;;;;;4987357;28;19921;-68
2022/01/01 07:34:37;;;;;;;;;;;10.20;99.90;;;;;;4983220;28;19909;-68
2022/01/01 07:37:03;;;;;;;;;;;10.20;99.90;;;;;;4993278;28;19910;-67
2022/01/01 07:39:28;;;;;;;;;;;10.20;99.90;;;;;;4991496;28;19933;-68
2022/01/01 07:41:54;;;;;;;;;;;10.20;99.90;;;;;;4990769;28;19920;-67
2022/01/01 07:44:19;;;;;;;;;;;10.20;99.90;;;;;;4972647;28;19953;-68
2022/01/01 07:46:45;;;;;;;;;;;10.30;99.90;;;;;;4987528;28;19916;-68
2022/01/01 07:49:10;;;;;;;;;;;10.30;99.90;;;;;;4969810;28;19918;-68
2022/01/01 07:51:36;;;;;;;;;;;10.30;99.90;;;;;;4984344;28;19996;-68
2022/01/01 07:54:01;;;;;;;;;;;10.30;99.90;;;;;;4989703;28;19957;-68
2022/01/01 07:56:27;;;;;;;;;;;10.40;99.90;;;;;;4992025;28;20004;-68
2022/01/01 07:58:52;;;;;;;;;;;10.40;99.90;;;;;;4976873;28;19964;-68
2022/01/01 08:01:17;;;;;;;;;;;10.40;99.90;;;;;;4990471;28;19932;-68
2022/01/01 08:03:43;;;;;;;;;;;10.40;99.90;;;;;;4974097;28;19948;-68
2022/01/01 08:06:09;;;;;;;;;;;10.50;99.90;;;;;;4980353;28;19917;-68
2022/01/01 08:08:34;;;;;;;;;;;10.50;99.90;;;;;;4986187;28;20052;-67
2022/01/01 08:10:59;;;;;;;;;;;10.50;99.90;;;;;;4986531;28;19917;-68
2022/01/01 08:13:25;;;;;;;;;;;10.40;99.90;;;;;;4971257;28;20000;-68
2022/01/01 08:15:52;;;;;;;;;;;10.50;99.90;;;;;;4974794;28;19916;-68
2022/01/01 08:18:17;;;;;;;;;;;10.50;99.90;;;;;;4992617;28;19910;-68
2022/01/01 08:20:43;;;;;;;;;;;10.50;99.90;;;;;;4990954;28;19934;-69
2022/01/01 08:23:09;;;;;;;;;;;10.50;99.90;;;;;;4978370;28;20379;-68
2022/01/01 08:25:34;;;;;;;;;;;10.50;99.90;;;;;;4989314;28;19914;-68
2022/01/01 08:28:00;;;;;;;;;;;10.60;99.90;;;;;;4985463;28;19997;-68
2022/01/01 08:30:26;;;;;;;;;;;10.50;99.90;;;;;;4987498;28;19964;-68
2022/01/01 08:32:51;;;;;;;;;;;10.50;99.90;;;;;;4974684;28;19953;-68
2022/01/01 08:35:16;;;;;;;;;;;10.60;99.90;;;;;;4968964;28;19968;-68
2022/01/01 08:37:42;;;;;;;;;;;10.50;99.90;;;;;;4979756;28;19913;-68
2022/01/01 08:40:08;;;;;;;;;;;10.60;99.90;;;;;;4986104;28;19914;-68
2022/01/01 08:42:33;;;;;;;;;;;10.50;99.90;;;;;;4983964;28;20009;-68
2022/01/01 08:44:59;;;;;;;;;;;10.60;99.90;;;;;;4991547;28;19914;-68
2022/01/01 08:47:26;;;;;;;;;;;10.50;99.90;;;;;;4993694;28;19910;-68
2022/01/01 08:49:55;;;;;;;;;;;10.50;99.90;;;;;;4985954;28;19914;-68
2022/01/01 08:52:24;;;;;;;;;;;10.50;99.90;;;;;;4992536;28;19912;-68
2022/01/01 08:54:55;;;;;;;;;;;10.60;99.90;;;;;;4992193;28;20535;-68
2022/01/01 08:57:20;;;;;;;;;;;10.60;99.90;;;;;;4993210;28;19916;-68
2022/01/01 08:59:46;;;;;;;;;;;10.60;99.90;;;;;;4988141;28;19997;-68
2022/01/01 09:02:11;;;;;;;;;;;10.60;99.90;;;;;;4982103;28;19918;-68
2022/01/01 09:04:37;;;;;;;;;;;10.70;99.90;;;;;;4978589;28;19914;-68
2022/01/01 09:07:04;;;;;;;;;;;10.70;99.90;;;;;;4963756;28;19957;-68
2022/01/01 09:09:29;;;;;;;;;;;10.70;99.90;;;;;;4979018;28;19910;-68
2022/01/01 09:11:55;;;;;;;;;;;10.70;99.90;;;;;;4963359;28;19910;-68
2022/01/01 09:14:20;;;;;;;;;;;10.80;99.90;;;;;;4976141;28;19910;-68
2022/01/01 09:16:46;;;;;;;;;;;10.80;99.90;;;;;;4964063;28;19913;-68
2022/01/01 09:19:12;;;;;;;;;;;10.80;99.90;;;;;;4965887;28;20292;-68
2022/01/01 09:21:38;;;;;;;;;;;10.90;99.90;;;;;;4974421;28;20392;-67
2022/01/01 09:24:04;;;;;;;;;;;10.90;99.90;;;;;;4969871;28;19935;-68
2022/01/01 09:26:29;;;;;;;;;;;11.00;99.90;;;;;;4966648;28;19961;-67
2022/01/01 09:28:55;;;;;;;;;;;11.00;99.90;;;;;;4979786;28;20412;-68
2022/01/01 09:31:20;;;;;;;;;;;11.00;99.90;;;;;;4973160;28;19918;-67
2022/01/01 09:33:46;;;;;;;;;;;11.00;99.90;;;;;;4969614;28;20072;-68
2022/01/01 09:36:17;;;;;;;;;;;11.00;99.90;;;;;;4972310;28;19953;-68
2022/01/01 09:38:43;;;;;;;;;;;11.00;99.90;;;;;;4979239;28;19972;-68
2022/01/01 09:41:09;;;;;;;;;;;11.10;99.90;;;;;;4980074;28;19978;-68
2022/01/01 09:43:35;;;;;;;;;;;11.10;99.90;;;;;;4974822;28;19924;-68
2022/01/01 09:46:00;;;;;;;;;;;11.20;99.90;;;;;;4973206;28;19914;-68
2022/01/01 09:48:27;;;;;;;;;;;11.30;99.90;;;;;;4985914;28;19909;-68
2022/01/01 09:50:54;;;;;;;;;;;11.30;99.90;;;;;;4972810;28;20384;-68
2022/01/01 09:53:20;;;;;;;;;;;11.40;99.90;;;;;;4969597;28;20332;-68
2022/01/01 09:55:46;;;;;;;;;;;11.40;99.90;;;;;;4969946;28;20270;-67
2022/01/01 09:58:12;;;;;;;;;;;11.40;99.90;;;;;;4974487;28;20441;-67
2022/01/01 10:00:37;;;;;;;;;;;11.50;99.90;;;;;;4966684;28;19997;-67
2022/01/01 10:03:03;;;;;;;;;;;11.50;99.90;;;;;;4973661;28;19910;-67
2022/01/01 10:05:28;;;;;;;;;;;11.50;99.90;;;;;;4967035;28;19953;-67
2022/01/01 10:07:54;;;;;;;;;;;11.50;99.90;;;;;;4991348;28;19918;-67
2022/01/01 10:10:25;;;;;;;;;;;11.60;99.90;;;;;;4989285;28;20291;-67
2022/01/01 10:12:51;;;;;;;;;;;11.60;99.90;;;;;;4994722;28;20291;-67
2022/01/01 10:15:17;;;;;;;;;;;11.60;99.90;;;;;;4993299;28;19917;-67
2022/01/01 10:17:42;;;;;;;;;;;11.60;99.90;;;;;;4968657;28;20287;-67
2022/01/01 10:20:08;;;;;;;;;;;11.60;99.90;;;;;;4991703;28;19917;-67
2022/01/01 10:22:35;;;;;;;;;;;11.60;99.90;;;;;;4977348;28;19992;-67
2022/01/01 10:27:59;;;;;;;;;;;11.60;99.90;;;;;;4988052;28;20001;-67
2022/01/01 10:30:40;;;;;;;;;;;11.60;99.90;;;;;;4981041;28;19910;-67
2022/01/01 10:33:09;;;;;;;;;;;11.60;99.90;;;;;;4985980;28;19914;-67
2022/01/01 10:35:48;;;;;;;;;;;11.60;99.90;;;;;;4985039;28;19965;-67
2022/01/01 10:38:14;;;;;;;;;;;11.70;99.90;;;;;;4985818;28;19909;-67
2022/01/01 10:40:40;;;;;;;;;;;11.70;99.90;;;;;;4973528;28;19917;-67
2022/01/01 10:43:05;;;;;;;;;;;11.70;99.90;;;;;;4989260;28;20273;-67
2022/01/01 10:45:39;;;;;;;;;;;11.70;99.90;;;;;;4980711;28;19918;-67
2022/01/01 10:48:04;;;;;;;;;;;11.80;99.90;;;;;;4980615;28;19952;-67
2022/01/01 10:50:35;;;;;;;;;;;11.70;99.90;;;;;;4983474;28;20352;-67
2022/01/01 10:53:14;;;;;;;;;;;11.80;99.90;;;;;;4983312;28;19925;-67
2022/01/01 10:55:40;;;;;;;;;;;11.80;99.90;;;;;;4989123;28;19941;-67
2022/01/01 10:58:05;;;;;;;;;;;11.80;99.90;;;;;;4970182;28;19910;-66
2022/01/01 11:00:38;;;;;;;;;;;11.90;99.90;;;;;;4985270;28;19914;-67
2022/01/01 11:03:04;;;;;;;;;;;11.90;99.90;;;;;;4969038;28;19910;-67
2022/01/01 11:05:29;;;;;;;;;;;11.90;99.90;;;;;;4992500;28;20384;-67
2022/01/01 11:07:55;;;;;;;;;;;11.90;99.90;;;;;;4993656;28;19964;-67
2022/01/01 11:10:21;;;;;;;;;;;12.00;99.90;;;;;;4988572;28;19953;-67
2022/01/01 11:12:47;;;;;;;;;;;12.00;99.90;;;;;;4966813;28;20391;-67
2022/01/01 11:15:13;;;;;;;;;;;12.10;99.90;;;;;;4992328;28;19910;-67
2022/01/01 11:17:39;;;;;;;;;;;12.10;99.90;;;;;;4982493;28;19909;-67
2022/01/01 11:20:07;;;;;;;;;;;12.30;99.90;;;;;;4979168;28;19910;-67
2022/01/01 11:22:33;;;;;;;;;;;12.30;99.90;;;;;;4989464;28;19910;-67
2022/01/01 11:24:59;;;;;;;;;;;12.40;99.90;;;;;;4974305;28;19914;-67
2022/01/01 11:27:26;;;;;;;;;;;12.40;99.90;;;;;;4993138;28;19910;-67
2022/01/01 11:29:53;;;;;;;;;;;12.40;99.90;;;;;;4989868;28;19916;-67
2022/01/01 11:32:23;;;;;;;;;;;12.40;99.90;;;;;;4992878;28;19913;-67
2022/01/01 11:34:51;;;;;;;;;;;12.40;99.90;;;;;;4984431;28;19910;-67
2022/01/01 11:37:16;;;;;;;;;;;12.40;99.90;;;;;;4990443;28;19932;-67
2022/01/01 11:39:43;;;;;;;;;;;12.50;99.90;;;;;;4971322;28;20384;-67
2022/01/01 11:42:13;;;;;;;;;;;12.50;99.90;;;;;;4973482;28;19913;-67
2022/01/01 11:44:42;;;;;;;;;;;12.60;99.90;;;;;;4988190;28;19918;-68
2022/01/01 11:47:16;;;;;;;;;;;12.60;99.90;;;;;;4986939;28;19957;-67
2022/01/01 11:49:42;;;;;;;;;;;12.60;99.90;;;;;;4971704;28;19937;-67
2022/01/01 11:52:07;;;;;;;;;;;12.60;99.90;;;;;;4986439;28;20360;-67
2022/01/01 11:54:33;;;;;;;;;;;12.60;99.90;;;;;;4991296;28;20364;-68
2022/01/01 11:57:01;;;;;;;;;;;12.70;99.90;;;;;;4984515;28;19910;-67
2022/01/01 11:59:31;;;;;;;;;;;12.70;99.90;;;;;;4986644;28;19948;-67
2022/01/01 12:01:58;;;;;;;;;;;12.70;99.90;;;;;;4982193;28;20005;-67
2022/01/01 12:04:31;;;;;;;;;;;12.70;99.90;;;;;;4977495;28;20300;-67
2022/01/01 12:06:58;;;;;;;;;;;12.70;99.90;;;;;;4980441;28;19984;-67
2022/01/01 12:09:24;;;;;;;;;;;12.70;99.90;;;;;;4984736;28;20500;-67
2022/01/01 12:11:53;;;;;;;;;;;12.70;99.90;;;;;;4985016;28;20069;-67
2022/01/01 12:14:25;;;;;;;;;;;12.70;99.90;;;;;;4991810;28;19913;-66
2022/01/01 12:16:55;;;;;;;;;;;12.70;99.90;;;;;;4988187;28;19909;-67
2022/01/01 12:19:24;;;;;;;;;;;12.70;99.90;;;;;;4970819;28;19932;-67
2022/01/01 12:22:01;;;;;;;;;;;12.70;99.90;;;;;;4989673;28;19916;-67
2022/01/01 12:24:27;;;;;;;;;;;12.70;99.90;;;;;;4981816;28;19914;-67
2022/01/01 12:26:52;;;;;;;;;;;12.70;99.90;;;;;;4975628;28;19910;-67
2022/01/01 12:29:21;;;;;;;;;;;12.70;99.90;;;;;;4974855;28;19953;-68
2022/01/01 12:31:53;;;;;;;;;;;12.70;99.90;;;;;;4979242;28;19960;-67
2022/01/01 12:34:19;;;;;;;;;;;12.70;99.90;;;;;;4983722;28;20372;-67
2022/01/01 12:36:49;;;;;;;;;;;12.70;99.90;;;;;;4984967;28;20160;-67
2022/01/01 12:39:15;;;;;;;;;;;12.70;99.90;;;;;;4980975;28;21315;-67
2022/01/01 12:41:41;;;;;;;;;;;12.70;99.90;;;;;;4986722;28;20414;-67
2022/01/01 12:44:08;;;;;;;;;;;12.80;99.90;;;;;;4988124;28;19910;-67
2022/01/01 12:46:35;;;;;;;;;;;12.90;99.90;;;;;;4984981;28;21214;-67
2022/01/01 12:49:01;;;;;;;;;;;12.90;99.90;;;;;;4981227;28;19910;-67
2022/01/01 12:51:28;;;;;;;;;;;13.00;99.90;;;;;;4986526;28;19910;-67
2022/01/01 12:53:57;;;;;;;;;;;13.00;99.90;;;;;;4990223;28;19910;-68
2022/01/01 12:56:23;;;;;;;;;;;13.00;99.90;;;;;;4975206;28;19909;-67
2022/01/01 12:58:52;;;;;;;;;;;13.00;99.90;;;;;;4976652;28;20016;-68
2022/01/01 13:01:19;;;;;;;;;;;13.00;99.90;;;;;;4991561;28;19921;-67
2022/01/01 13:03:46;;;;;;;;;;;13.00;99.90;;;;;;4986333;28;19909;-67
2022/01/01 13:06:19;;;;;;;;;;;13.00;99.90;;;;;;4989933;28;19926;-67
2022/01/01 13:08:44;;;;;;;;;;;13.00;99.90;;;;;;4970987;28;20375;-67
2022/01/01 13:11:12;;;;;;;;;;;13.00;99.90;;;;;;4989372;28;19949;-67
2022/01/01 13:13:38;;;;;;;;;;;12.90;99.90;;;;;;4972216;28;19909;-67
2022/01/01 13:16:03;;;;;;;;;;;12.90;99.90;;;;;;4983038;28;19957;-67
2022/01/01 13:18:29;;;;;;;;;;;12.90;99.90;;;;;;4988390;28;19909;-67
2022/01/01 13:20:54;;;;;;;;;;;13.00;99.90;;;;;;4979173;28;20059;-66
2022/01/01 13:23:24;;;;;;;;;;;13.00;99.90;;;;;;4980672;28;20287;-67
2022/01/01 13:25:50;;;;;;;;;;;13.10;99.90;;;;;;4985051;28;19937;-67
2022/01/01 13:28:16;;;;;;;;;;;13.10;99.90;;;;;;4980140;28;20046;-67
2022/01/01 13:30:41;;;;;;;;;;;13.20;99.90;;;;;;4983803;28;20155;-66
2022/01/01 13:33:07;;;;;;;;;;;13.20;99.90;;;;;;4961829;28;19920;-67
2022/01/01 13:35:32;;;;;;;;;;;13.20;99.90;;;;;;4973478;28;19941;-67
2022/01/01 13:37:58;;;;;;;;;;;13.30;99.90;;;;;;4993878;28;19909;-67
2022/01/01 13:40:23;;;;;;;;;;;13.20;99.90;;;;;;4988202;28;20415;-67
2022/01/01 13:42:49;;;;;;;;;;;13.20;99.90;;;;;;4989998;28;19916;-66
2022/01/01 13:45:15;;;;;;;;;;;13.20;99.90;;;;;;4998423;28;19917;-67
2022/01/01 13:47:40;;;;;;;;;;;13.20;99.90;;;;;;4994805;28;19917;-67
2022/01/01 13:50:17;;;;;;;;;;;13.20;99.90;;;;;;4996833;28;20398;-67
2022/01/01 13:52:51;;;;;;;;;;;13.20;99.90;;;;;;4984241;28;19917;-66
2022/01/01 13:55:22;;;;;;;;;;;13.20;99.90;;;;;;4985913;28;19910;-67
2022/01/01 13:57:51;;;;;;;;;;;13.20;99.90;;;;;;4985311;28;19909;-67
2022/01/01 14:00:16;;;;;;;;;;;13.20;99.90;;;;;;4981382;28;19956;-67
2022/01/01 14:02:43;;;;;;;;;;;13.10;99.90;;;;;;4987099;28;19945;-66
2022/01/01 14:05:09;;;;;;;;;;;13.00;99.90;;;;;;4989946;28;19913;-66
2022/01/01 14:07:34;;;;;;;;;;;13.00;99.90;;;;;;4983741;28;19940;-66
2022/01/01 14:10:16;;;;;;;;;;;13.10;99.90;;;;;;4983899;28;19976;-66
2022/01/01 14:12:43;;;;;;;;;;;13.00;99.90;;;;;;4986934;28;19968;-66
2022/01/01 14:15:12;;;;;;;;;;;13.00;99.90;;;;;;4988231;28;20008;-66
2022/01/01 14:17:50;;;;;;;;;;;13.20;99.90;;;;;;4988176;28;19916;-66
2022/01/01 14:20:22;;;;;;;;;;;13.10;99.90;;;;;;4995158;28;19909;-67